Time;durP1;ratioP1;P1;durP2;ratioP2;P2;SDS_P1;SDS_P2;PMS_P1;PMS_P2;Temp;Humidity;BMP_temperature;BMP_pressure;BME280_temperature;BME280_humidity;BME280_pressure;Samples;Min_cycle;Max_cycle;Signal;HPM_P1;HPM_P2
2020/12/29 00:04:11;;;;;;;;;;;0.60;99.90;;;-0.43;89.77;92619.22;10531003;28;1980;-82
2020/12/29 00:09:12;;;;;;;;;;;1.00;99.90;;;-0.44;89.46;92612.38;10533522;28;2040;-83
2020/12/29 00:14:15;;;;;;;;;;;0.60;99.90;;;-0.42;89.94;92616.28;10538099;28;1875;-82
2020/12/29 00:19:16;;;;;;;;;;;0.90;99.90;;;-0.47;88.49;92618.22;10536292;28;1676;-85
2020/12/29 00:24:18;;;;;;;;;;;0.60;99.90;;;-0.46;89.63;92630.31;10505075;28;1997;-82
2020/12/29 00:29:34;;;;;;;;;;;0.60;99.90;;;-0.33;88.96;92640.19;10525136;28;2096;-85
2020/12/29 00:34:36;;;;;;;;;;;0.80;99.90;;;-0.23;87.64;92639.31;10496909;28;1836;-84
2020/12/29 00:39:38;;;;;;;;;;;1.90;99.90;;;-0.26;85.83;92624.78;10511363;28;1969;-86
2020/12/29 00:44:40;;;;;;;;;;;1.50;99.90;;;-0.36;86.66;92638.13;10495110;28;1918;-85
2020/12/29 00:49:42;;;;;;;;;;;0.70;99.90;;;-0.38;86.35;92658.72;10534203;28;1859;-86
2020/12/29 00:54:44;;;;;;;;;;;0.70;99.90;;;-0.31;86.15;92659.19;10488767;28;1831;-85
2020/12/29 00:59:45;;;;;;;;;;;1.20;99.90;;;-0.21;85.71;92671.47;10521425;28;1973;-86
2020/12/29 01:04:47;;;;;;;;;;;1.60;99.90;;;-0.21;85.19;92680.19;10510943;28;2013;-84
2020/12/29 01:09:49;;;;;;;;;;;0.80;99.90;;;-0.12;83.87;92652.09;10514092;28;2004;-85
2020/12/29 01:14:51;;;;;;;;;;;0.90;99.90;;;-0.12;83.63;92654.72;10519932;28;1847;-84
2020/12/29 01:19:52;;;;;;;;;;;0.90;99.90;;;-0.09;82.77;92654.16;10496937;28;1899;-86
2020/12/29 01:24:54;;;;;;;;;;;1.00;99.90;;;-0.15;84.33;92657.16;10520395;28;1980;-85
2020/12/29 01:29:56;;;;;;;;;;;1.40;99.90;;;-0.23;83.95;92655.94;10509415;28;1993;-85
2020/12/29 01:34:58;;;;;;;;;;;0.90;99.90;;;-0.19;83.67;92662.22;10516690;28;1946;-86
2020/12/29 01:39:59;;;;;;;;;;;0.80;99.90;;;-0.15;82.94;92665.84;10521259;28;1934;-85
2020/12/29 01:45:01;;;;;;;;;;;1.10;99.90;;;-0.12;83.82;92672.44;10514493;28;1886;-83
2020/12/29 01:50:03;;;;;;;;;;;0.80;99.90;;;-0.17;84.15;92675.91;10516133;28;2046;-86
2020/12/29 01:55:04;;;;;;;;;;;0.90;99.90;;;-0.20;84.45;92687.03;10516348;28;1914;-86
2020/12/29 02:00:06;;;;;;;;;;;0.90;99.90;;;-0.30;84.32;92685.31;10523717;28;2021;-84
2020/12/29 02:05:08;;;;;;;;;;;0.90;99.90;;;-0.34;84.30;92681.63;10525967;28;1891;-86
2020/12/29 02:10:10;;;;;;;;;;;1.80;99.90;;;-0.51;85.30;92696.34;10498721;28;2056;-86
2020/12/29 02:15:13;;;;;;;;;;;0.70;99.90;;;-0.52;86.68;92710.59;10507491;28;1918;-86
2020/12/29 02:20:15;;;;;;;;;;;0.60;99.90;;;-0.46;86.96;92714.75;10499215;28;2100;-85
2020/12/29 02:25:17;;;;;;;;;;;0.60;99.90;;;-0.38;86.26;92719.44;10530145;28;1992;-86
2020/12/29 02:30:18;;;;;;;;;;;0.70;99.90;;;-0.32;85.88;92731.50;10534413;28;2088;-85
2020/12/29 02:35:20;;;;;;;;;;;1.10;99.90;;;-0.27;85.44;92740.16;10493187;28;2051;-83
2020/12/29 02:40:22;;;;;;;;;;;0.80;99.90;;;-0.36;86.00;92725.22;10534825;28;2116;-86
2020/12/29 02:45:23;;;;;;;;;;;1.20;99.90;;;-0.32;86.45;92758.72;10524601;28;2218;-84
2020/12/29 02:50:29;;;;;;;;;;;0.70;99.90;;;-0.25;86.10;92784.78;10524922;28;2072;-85
2020/12/29 02:55:31;;;;;;;;;;;0.90;99.90;;;-0.18;86.72;92785.22;10536135;28;2065;-83
2020/12/29 03:00:33;;;;;;;;;;;0.90;99.90;;;-0.09;86.13;92772.97;10511068;28;1940;-85
2020/12/29 03:05:34;;;;;;;;;;;1.30;99.90;;;0.03;86.58;92791.06;10518329;28;2418;-83
2020/12/29 03:10:37;;;;;;;;;;;1.00;99.90;;;0.01;86.07;92787.16;10503716;28;2056;-86
2020/12/29 03:15:38;;;;;;;;;;;1.10;99.90;;;0.06;86.58;92787.84;10516952;28;2193;-86
2020/12/29 03:20:40;;;;;;;;;;;1.10;99.90;;;0.19;85.69;92781.91;10507092;28;1996;-86
2020/12/29 03:25:42;;;;;;;;;;;1.90;99.90;;;0.22;85.47;92775.28;10507406;28;2038;-85
2020/12/29 03:30:44;;;;;;;;;;;1.30;99.90;;;0.20;84.67;92774.78;10521190;28;1829;-86
2020/12/29 03:35:45;;;;;;;;;;;1.90;99.90;;;0.07;85.29;92780.75;10505952;28;2102;-86
2020/12/29 03:40:47;;;;;;;;;;;1.20;99.90;;;-0.08;85.58;92784.31;10524674;28;1829;-86
2020/12/29 03:45:49;;;;;;;;;;;1.10;99.90;;;-0.16;86.56;92801.56;10505335;28;2289;-84
2020/12/29 03:50:51;;;;;;;;;;;2.00;99.90;;;-0.28;87.02;92801.16;10533643;28;1833;-85
2020/12/29 03:55:53;;;;;;;;;;;0.90;99.90;;;-0.42;87.03;92811.56;10531930;28;1931;-86
2020/12/29 04:00:54;;;;;;;;;;;0.80;99.90;;;-0.50;87.35;92819.31;10533375;28;2027;-85
2020/12/29 04:05:56;;;;;;;;;;;0.70;99.90;;;-0.55;88.04;92842.03;10523544;28;2012;-85
2020/12/29 04:10:58;;;;;;;;;;;0.60;99.90;;;-0.48;88.33;92846.19;10544616;28;2138;-84
2020/12/29 04:16:00;;;;;;;;;;;1.60;99.90;;;-0.37;88.32;92834.50;10535839;28;2114;-83
2020/12/29 04:21:02;;;;;;;;;;;0.70;99.90;;;-0.30;87.67;92825.19;10523541;28;2052;-82
2020/12/29 04:26:04;;;;;;;;;;;0.80;99.90;;;-0.23;87.76;92824.09;10566146;28;1966;-82
2020/12/29 04:31:05;;;;;;;;;;;1.50;99.90;;;-0.18;87.99;92840.66;10545574;28;2076;-80
2020/12/29 04:36:07;;;;;;;;;;;0.80;99.90;;;-0.19;87.88;92867.31;10522336;28;2029;-84
2020/12/29 04:41:10;;;;;;;;;;;0.90;99.90;;;-0.17;87.42;92871.28;10488407;28;2098;-86
2020/12/29 04:46:12;;;;;;;;;;;2.50;99.90;;;-0.18;87.83;92890.81;10481180;28;2061;-84
2020/12/29 04:51:13;;;;;;;;;;;0.90;99.90;;;-0.10;87.80;92903.44;10504854;28;2128;-83
2020/12/29 04:56:15;;;;;;;;;;;1.50;99.90;;;0.03;86.59;92907.28;10523990;28;2175;-84
2020/12/29 05:01:17;;;;;;;;;;;1.00;99.90;;;0.12;86.75;92905.59;10514382;28;2082;-84
2020/12/29 05:06:34;;;;;;;;;;;1.10;99.90;;;0.08;86.22;92933.63;10525302;28;2032;-85
2020/12/29 05:11:36;;;;;;;;;;;1.10;99.90;;;0.16;85.53;92934.88;10521504;28;2063;-83
2020/12/29 05:16:38;;;;;;;;;;;1.90;99.90;;;0.19;84.91;92915.81;10535323;28;1819;-84
2020/12/29 05:21:40;;;;;;;;;;;1.20;99.90;;;0.15;85.04;92957.88;10523895;28;2013;-85
2020/12/29 05:26:51;;;;;;;;;;;1.20;99.90;;;0.09;85.50;92952.91;10514345;23;2044;-85
2020/12/29 05:32:19;;;;;;;;;;;2.00;99.90;;;0.24;83.47;92940.34;10505165;28;1977;-85
2020/12/29 05:37:44;;;;;;;;;;;1.10;99.90;;;0.15;84.05;92949.94;10471171;28;2112;-84
2020/12/29 05:48:53;;;;;;;;;;;2.10;99.90;;;0.18;83.57;92961.81;10468182;28;2073;-84
2020/12/29 05:53:59;;;;;;;;;;;1.10;99.90;;;0.16;83.04;92969.22;10473875;28;2189;-83
2020/12/29 05:59:24;;;;;;;;;;;1.30;99.90;;;0.04;82.95;92990.72;10460482;28;2077;-84
2020/12/29 06:10:20;;;;;;;;;;;1.00;99.90;;;-0.14;83.72;93015.91;10480644;28;2110;-83
2020/12/29 06:15:33;;;;;;;;;;;0.90;99.90;;;-0.04;82.90;93012.44;10474693;28;2011;-84
2020/12/29 06:20:50;;;;;;;;;;;1.00;99.90;;;-0.09;82.90;93013.25;10495238;28;2371;-85
2020/12/29 06:26:22;;;;;;;;;;;1.00;99.90;;;-0.11;83.01;93018.03;10460504;28;2053;-85
2020/12/29 06:31:39;;;;;;;;;;;1.90;99.90;;;-0.12;82.79;93029.66;10467589;28;1943;-84
2020/12/29 06:37:01;;;;;;;;;;;1.00;99.90;;;-0.14;82.66;93029.13;10455171;28;1986;-84
2020/12/29 06:42:12;;;;;;;;;;;1.30;99.90;;;-0.34;83.02;93035.31;10466969;28;2061;-85
2020/12/29 06:47:25;;;;;;;;;;;0.90;99.90;;;-0.51;83.77;93055.19;10464112;28;2037;-85
2020/12/29 06:52:38;;;;;;;;;;;0.70;99.90;;;-0.49;83.82;93053.09;10500401;28;1995;-81
2020/12/29 06:58:25;;;;;;;;;;;1.60;99.90;;;-0.61;83.46;93077.94;10479169;28;2070;-86
2020/12/29 07:03:37;;;;;;;;;;;0.50;99.90;;;-0.40;82.10;93078.63;10455824;28;2086;-84
2020/12/29 07:08:45;;;;;;;;;;;0.50;99.90;;;-0.38;82.45;93107.38;10482432;28;2062;-84
2020/12/29 07:13:51;;;;;;;;;;;1.50;99.90;;;-0.46;82.18;93121.16;10467281;28;1975;-85
2020/12/29 07:18:59;;;;;;;;;;;0.60;99.90;;;-0.36;81.58;93121.13;10480321;28;2267;-86
2020/12/29 07:24:11;;;;;;;;;;;0.60;99.90;;;-0.33;81.82;93141.69;10462842;28;2068;-83
2020/12/29 07:29:15;;;;;;;;;;;1.50;99.90;;;-0.28;80.79;93153.03;10491410;28;2070;-83
2020/12/29 07:39:40;;;;;;;;;;;2.70;99.90;;;-0.21;80.78;93150.09;10487925;28;1941;-83
2020/12/29 07:45:03;;;;;;;;;;;1.70;99.90;;;-0.28;80.37;93160.94;10504000;28;2058;-86
2020/12/29 07:50:19;;;;;;;;;;;2.10;99.90;;;-0.28;80.66;93165.44;10466359;28;2035;-86
2020/12/29 07:55:36;;;;;;;;;;;1.10;99.90;;;-0.14;79.40;93178.84;10478797;28;2014;-85
2020/12/29 08:00:52;;;;;;;;;;;0.80;99.90;;;-0.08;78.77;93194.38;10458172;28;2030;-84
2020/12/29 08:06:14;;;;;;;;;;;1.50;99.90;;;0.07;77.88;93203.34;10453377;28;1981;-85
2020/12/29 08:11:50;;;;;;;;;;;;;;;;;;;;;
2020/12/29 08:34:26;;;;;;;;;;;2.80;99.90;;;2.58;64.67;93238.72;10485316;28;1884;-87
2020/12/29 09:02:40;;;;;;;;;;;;;;;;;;;;;
2020/12/29 09:08:44;;;;;;;;;;;4.80;97.20;;;2.85;64.34;93300.97;10234608;29;1919;-87
2020/12/29 09:26:13;;;;;;;;;;;4.40;96.50;;;3.15;63.92;93324.44;10289403;28;1981;-86
2020/12/29 09:37:30;;;;;;;;;;;4.20;94.50;;;3.45;63.00;93344.47;10496086;22;1955;-86
2020/12/29 09:48:54;;;;;;;;;;;5.20;93.10;;;4.32;59.14;93359.78;10221720;28;1939;-86
2020/12/29 09:54:29;;;;;;;;;;;5.50;91.20;;;4.38;58.89;93373.00;10054609;29;1956;-86
2020/12/29 09:59:31;;;;;;;;;;;5.30;88.90;;;4.27;59.17;93381.16;10149923;29;1933;-85
2020/12/29 10:04:33;;;;;;;;;;;5.30;87.60;;;4.11;60.08;93373.72;10167045;29;1946;-84
2020/12/29 10:09:36;;;;;;;;;;;5.20;87.80;;;4.02;61.06;93382.38;10156737;29;1871;-84
2020/12/29 10:14:37;;;;;;;;;;;5.10;88.70;;;4.11;61.27;93393.13;10139928;29;2192;-87
2020/12/29 10:19:39;;;;;;;;;;;5.70;89.50;;;4.22;60.51;93396.41;10149968;29;2123;-84
2020/12/29 10:24:41;;;;;;;;;;;5.20;89.00;;;4.24;59.76;93400.34;10382012;28;2084;-84
2020/12/29 10:29:43;;;;;;;;;;;6.00;88.40;;;4.08;61.45;93407.00;10442025;28;1709;-86
2020/12/29 10:34:44;;;;;;;;;;;5.20;88.40;;;3.98;63.11;93399.19;10413105;28;1994;-85
2020/12/29 10:39:46;;;;;;;;;;;5.10;89.90;;;4.00;62.94;93403.13;10428643;28;1876;-86
2020/12/29 10:44:48;;;;;;;;;;;5.30;90.10;;;4.01;62.24;93411.91;10431510;28;1887;-87
2020/12/29 10:49:50;;;;;;;;;;;5.00;89.80;;;3.96;63.11;93419.97;10443208;28;1965;-87
2020/12/29 10:54:52;;;;;;;;;;;6.00;90.60;;;4.01;62.57;93427.88;10451383;28;1906;-84
2020/12/29 10:59:54;;;;;;;;;;;5.00;90.00;;;3.98;63.09;93431.88;10464756;28;1882;-84
2020/12/29 11:04:56;;;;;;;;;;;6.10;90.90;;;3.89;63.93;93446.91;10410133;28;2013;-85
2020/12/29 11:09:59;;;;;;;;;;;5.00;90.90;;;3.82;63.96;93443.84;10437075;28;1990;-86
2020/12/29 11:15:00;;;;;;;;;;;5.60;91.30;;;3.86;64.24;93436.06;10426447;28;1963;-86
2020/12/29 11:20:02;;;;;;;;;;;5.80;91.90;;;3.91;63.30;93446.63;10446545;28;1974;-87
2020/12/29 11:25:04;;;;;;;;;;;5.60;91.20;;;3.94;63.90;93449.47;10430389;28;1969;-86
2020/12/29 11:30:06;;;;;;;;;;;5.00;90.90;;;3.95;64.05;93450.28;10423511;28;1973;-85
2020/12/29 11:35:09;;;;;;;;;;;5.50;91.50;;;3.91;64.37;93470.53;10430018;28;1862;-85
2020/12/29 11:40:12;;;;;;;;;;;5.00;91.10;;;3.95;63.67;93471.56;10426150;28;1904;-86
2020/12/29 11:45:13;;;;;;;;;;;5.80;91.30;;;4.05;63.32;93477.50;10427091;28;1891;-85
2020/12/29 11:50:16;;;;;;;;;;;5.10;90.90;;;4.17;62.62;93478.91;10434164;28;1793;-86
2020/12/29 12:01:02;;;;;;;;;;;6.00;90.40;;;4.48;61.55;93487.22;10259608;28;1966;-88
2020/12/29 12:18:34;;;;;;;;;;;5.80;88.60;;;4.99;60.62;93507.66;10179868;29;2085;-86
2020/12/29 12:23:59;;;;;;;;;;;6.00;87.10;;;4.99;59.59;93503.09;10212884;28;1935;-86
2020/12/29 12:35:12;;;;;;;;;;;6.90;86.80;;;5.03;59.90;93532.63;10164305;29;2059;-85
2020/12/29 12:40:39;;;;;;;;;;;7.00;86.40;;;4.98;58.95;93538.03;10166881;29;2156;-85
2020/12/29 12:45:41;;;;;;;;;;;6.00;85.20;;;5.06;61.28;93537.34;10183921;29;2124;-86
2020/12/29 12:50:43;;;;;;;;;;;6.70;87.20;;;5.10;59.63;93533.00;10199950;28;2023;-85
2020/12/29 12:56:13;;;;;;;;;;;6.10;86.00;;;5.02;60.36;93541.66;10370631;28;2150;-85
2020/12/29 13:06:57;;;;;;;;;;;6.10;86.60;;;4.83;60.92;93547.81;10421243;28;2074;-85
2020/12/29 13:11:59;;;;;;;;;;;7.00;86.90;;;4.80;61.40;93567.06;10437590;28;2040;-84
2020/12/29 13:17:02;;;;;;;;;;;6.20;87.10;;;4.82;61.33;93574.75;10437504;28;1907;-82
2020/12/29 13:22:04;;;;;;;;;;;5.90;87.20;;;4.83;62.17;93584.31;10452111;28;1799;-87
2020/12/29 13:27:06;;;;;;;;;;;5.90;87.20;;;4.82;61.63;93596.03;10443717;28;1961;-85
2020/12/29 13:32:08;;;;;;;;;;;5.80;86.90;;;4.85;62.45;93601.59;10437490;28;1984;-85
2020/12/29 13:37:16;;;;;;;;;;;5.90;87.80;;;4.74;62.18;93604.69;10503009;22;1923;-85
2020/12/29 13:48:21;;;;;;;;;;;6.70;87.30;;;4.54;61.91;93619.09;10502366;28;1835;-85
2020/12/29 13:53:29;;;;;;;;;;;5.70;86.90;;;4.50;61.69;93631.38;10503482;28;1687;-88
2020/12/29 13:58:59;;;;;;;;;;;;;;;;;;;;;
2020/12/29 14:04:25;;;;;;;;;;;6.00;86.90;;;4.35;62.25;93624.41;10498034;28;1931;-87
2020/12/29 14:09:30;;;;;;;;;;;5.40;87.10;;;4.20;62.84;93636.03;10524301;28;2313;-84
2020/12/29 14:14:34;;;;;;;;;;;6.00;88.10;;;4.10;62.73;93656.63;10529623;28;1779;-84
2020/12/29 14:19:36;;;;;;;;;;;5.20;87.80;;;4.09;62.79;93666.47;10537607;28;2049;-84
2020/12/29 14:24:40;;;;;;;;;;;5.20;87.90;;;4.02;63.80;93671.34;10507961;28;1965;-84
2020/12/29 14:29:42;;;;;;;;;;;5.10;88.70;;;3.96;63.61;93669.84;10518874;28;1495;-86
2020/12/29 14:34:44;;;;;;;;;;;5.10;88.60;;;3.84;65.03;93680.06;10529275;28;1734;-84
2020/12/29 14:39:49;;;;;;;;;;;5.30;89.50;;;3.72;65.32;93686.56;10506412;28;1766;-84
2020/12/29 14:44:54;;;;;;;;;;;4.90;89.70;;;3.60;65.34;93693.31;10523002;28;1923;-83
2020/12/29 14:49:58;;;;;;;;;;;5.10;90.30;;;3.51;65.45;93685.19;10524914;28;2019;-83
2020/12/29 14:55:07;;;;;;;;;;;6.20;91.20;;;3.36;66.72;93687.94;10504262;28;1890;-89
2020/12/29 15:00:16;;;;;;;;;;;4.60;91.60;;;3.16;68.08;93694.22;10532235;28;1900;-85
2020/12/29 15:05:17;;;;;;;;;;;4.40;92.40;;;3.07;68.04;93696.69;10535551;28;1986;-84
2020/12/29 15:10:35;;;;;;;;;;;4.30;92.70;;;2.98;68.60;93708.94;10522412;28;1954;-84
2020/12/29 15:15:38;;;;;;;;;;;4.10;93.50;;;2.81;69.72;93708.56;10526634;28;1680;-85
2020/12/29 15:20:40;;;;;;;;;;;4.00;93.90;;;2.69;69.65;93707.03;10499169;28;1995;-85
2020/12/29 15:25:46;;;;;;;;;;;5.60;95.20;;;2.54;70.72;93704.44;10520789;28;1926;-85
2020/12/29 15:31:15;;;;;;;;;;;3.80;95.10;;;2.54;70.72;93722.22;10519809;28;1958;-86
2020/12/29 15:36:46;;;;;;;;;;;3.70;96.00;;;2.34;71.64;93723.13;10528434;28;1845;-84
2020/12/29 15:41:52;;;;;;;;;;;3.50;96.50;;;2.25;72.11;93740.66;10523008;28;1977;-83
2020/12/29 15:47:14;;;;;;;;;;;3.40;96.90;;;2.00;73.31;93742.34;10520645;28;2203;-86
2020/12/29 15:52:24;;;;;;;;;;;3.30;97.90;;;1.78;75.43;93750.59;10515780;28;1943;-85
2020/12/29 15:57:32;;;;;;;;;;;3.10;99.20;;;1.60;76.17;93759.09;10513601;28;1634;-85
2020/12/29 16:02:34;;;;;;;;;;;4.00;99.90;;;1.50;76.32;93759.09;10530209;28;1895;-84
2020/12/29 16:07:50;;;;;;;;;;;2.80;99.90;;;1.47;77.11;93754.34;10526704;28;2028;-86
2020/12/29 16:18:58;;;;;;;;;;;2.70;99.90;;;1.47;78.48;93768.38;10504480;28;1981;-85
2020/12/29 16:24:31;;;;;;;;;;;2.70;99.90;;;1.43;78.18;93785.84;10541773;28;2022;-82
2020/12/29 16:29:48;;;;;;;;;;;2.50;99.90;;;1.38;78.34;93793.78;10515983;28;1957;-86
2020/12/29 16:46:47;;;;;;;;;;;2.50;99.90;;;1.24;78.57;93803.31;10510323;28;2071;-79
2020/12/29 16:51:58;;;;;;;;;;;2.30;99.90;;;1.21;78.61;93814.41;10490077;28;2106;-83
2020/12/29 16:57:03;;;;;;;;;;;2.40;99.90;;;1.15;79.11;93818.94;10515297;28;1208;-78
2020/12/29 17:02:05;;;;;;;;;;;3.50;99.90;;;1.16;79.12;93831.09;10506040;28;2022;-81
2020/12/29 17:07:10;;;;;;;;;;;2.20;99.90;;;1.25;78.29;93832.16;10494839;28;1992;-79
2020/12/29 17:12:15;;;;;;;;;;;3.50;99.90;;;1.44;77.78;93831.66;10532807;28;2454;-84
2020/12/29 17:17:18;;;;;;;;;;;3.00;99.90;;;1.37;78.21;93836.41;10502391;28;1567;-84
2020/12/29 17:22:23;;;;;;;;;;;4.10;99.90;;;1.31;78.75;93844.34;10487351;28;1963;-83
2020/12/29 17:27:27;;;;;;;;;;;2.50;99.90;;;1.24;79.27;93838.50;10537520;28;1886;-83
2020/12/29 17:32:32;;;;;;;;;;;2.90;99.90;;;1.26;78.66;93838.25;10501384;28;1409;-83
2020/12/29 17:37:34;;;;;;;;;;;2.50;99.90;;;1.21;79.53;93846.16;10508346;28;2272;-83
2020/12/29 17:42:36;;;;;;;;;;;2.40;99.90;;;1.31;78.36;93854.13;10514065;28;1988;-82
2020/12/29 17:47:37;;;;;;;;;;;2.40;99.90;;;1.28;79.73;93857.31;10503619;28;1767;-82
2020/12/29 17:52:39;;;;;;;;;;;2.40;99.90;;;1.34;78.62;93856.28;10491229;28;1921;-87
2020/12/29 17:57:41;;;;;;;;;;;2.40;99.90;;;1.41;78.81;93866.63;10525563;28;1482;-84
2020/12/29 18:02:43;;;;;;;;;;;3.60;99.90;;;1.51;78.44;93883.28;10512579;28;2042;-81
2020/12/29 18:07:46;;;;;;;;;;;2.50;99.90;;;1.66;77.28;93893.13;10501198;28;1354;-81
2020/12/29 18:12:53;;;;;;;;;;;2.60;99.90;;;1.79;77.44;93910.34;10495944;28;1654;-87
2020/12/29 18:23:27;;;;;;;;;;;2.90;99.90;;;2.05;76.24;93930.50;10479636;28;1914;-83
2020/12/29 18:28:35;;;;;;;;;;;3.80;99.90;;;2.19;75.34;93930.75;10493179;28;2361;-85
2020/12/29 18:33:40;;;;;;;;;;;3.10;99.90;;;2.24;75.05;93938.69;10493214;28;2026;-84
2020/12/29 18:38:45;;;;;;;;;;;4.80;99.90;;;2.30;74.55;93942.16;10488430;28;3036;-85
2020/12/29 18:43:53;;;;;;;;;;;3.20;99.90;;;2.33;74.02;93946.91;10470208;28;3023;-86
2020/12/29 18:48:58;;;;;;;;;;;4.90;99.90;;;2.37;73.37;93951.41;10493189;28;3065;-83
2020/12/29 18:54:05;;;;;;;;;;;3.30;99.90;;;2.31;74.28;93951.69;10507890;28;3018;-84
2020/12/29 18:59:12;;;;;;;;;;;3.30;99.90;;;2.27;75.04;93958.56;10505197;28;2307;-84
2020/12/29 19:04:14;;;;;;;;;;;3.20;99.90;;;2.26;74.28;93957.78;10497870;28;1987;-84
2020/12/29 19:09:16;;;;;;;;;;;4.90;99.90;;;2.20;75.14;93969.44;10529608;28;2401;-83
2020/12/29 19:14:19;;;;;;;;;;;3.30;99.90;;;2.12;75.29;93970.78;10507299;28;2013;-83
2020/12/29 19:19:20;;;;;;;;;;;3.20;99.90;;;2.03;75.35;93975.00;10493637;28;1862;-86
2020/12/29 19:24:22;;;;;;;;;;;3.10;99.90;;;2.03;75.33;93980.28;10506798;28;2782;-85
2020/12/29 19:29:24;;;;;;;;;;;3.10;99.90;;;1.98;75.44;93982.97;10498343;28;1986;-85
2020/12/29 19:34:26;;;;;;;;;;;4.30;99.90;;;1.91;76.16;93977.13;10503434;28;1923;-84
2020/12/29 19:39:28;;;;;;;;;;;3.00;99.90;;;1.95;76.26;93983.47;10524269;28;2295;-87
2020/12/29 19:44:29;;;;;;;;;;;3.00;99.90;;;1.98;76.64;93985.59;10539325;28;1886;-85
2020/12/29 19:49:31;;;;;;;;;;;3.00;99.90;;;1.99;76.80;93984.53;10501342;28;1919;-82
2020/12/29 19:54:33;;;;;;;;;;;3.00;99.90;;;2.08;75.86;93980.31;10532256;28;1773;-85
2020/12/29 19:59:35;;;;;;;;;;;3.00;99.90;;;2.09;76.00;93989.84;10528571;28;2142;-86
2020/12/29 20:04:38;;;;;;;;;;;3.10;99.90;;;2.07;75.94;93989.31;10515000;28;2136;-84
2020/12/29 20:09:40;;;;;;;;;;;4.20;99.90;;;2.03;76.16;93993.53;10519264;28;2074;-86
2020/12/29 20:14:42;;;;;;;;;;;3.10;99.90;;;1.88;76.16;94006.78;10521592;28;1894;-83
2020/12/29 20:19:48;;;;;;;;;;;3.00;99.90;;;1.81;76.72;94014.19;10507316;28;2026;-85
2020/12/29 20:24:49;;;;;;;;;;;3.70;99.90;;;1.71;77.04;94016.81;10503221;28;2112;-83
2020/12/29 20:30:03;;;;;;;;;;;2.90;99.90;;;1.56;77.09;94013.06;10547679;28;1784;-82
2020/12/29 20:35:11;;;;;;;;;;;2.70;99.90;;;1.39;78.16;94007.16;10522428;28;1971;-82
2020/12/29 20:40:20;;;;;;;;;;;3.10;99.90;;;1.26;78.10;94018.22;10518903;28;1804;-84
2020/12/29 20:45:22;;;;;;;;;;;2.50;99.90;;;1.04;79.44;94024.50;10494388;28;1922;-86
2020/12/29 20:50:27;;;;;;;;;;;3.40;99.90;;;0.88;80.04;94025.44;10527867;28;2013;-83
2020/12/29 20:55:37;;;;;;;;;;;3.60;99.90;;;0.91;80.61;94032.88;10528405;28;1938;-86
2020/12/29 21:00:39;;;;;;;;;;;2.10;99.90;;;0.94;80.59;94037.66;10531428;28;1959;-85
2020/12/29 21:05:41;;;;;;;;;;;2.10;99.90;;;1.07;80.09;94054.91;10539467;28;1988;-84
2020/12/29 21:10:45;;;;;;;;;;;2.60;99.90;;;1.29;79.56;94060.88;10559589;28;1986;-84
2020/12/29 21:15:48;;;;;;;;;;;2.20;99.90;;;1.49;78.99;94052.22;10533477;28;2014;-84
2020/12/29 21:20:50;;;;;;;;;;;3.20;99.90;;;1.60;78.20;94045.13;10534533;28;1679;-82
2020/12/29 21:25:52;;;;;;;;;;;3.10;99.90;;;1.69;78.37;94048.06;10501412;28;1973;-83
2020/12/29 21:30:54;;;;;;;;;;;3.10;99.90;;;1.80;78.18;94052.34;10502681;28;1935;-82
2020/12/29 21:35:56;;;;;;;;;;;2.80;99.90;;;1.88;77.07;94057.13;10510316;28;1831;-83
2020/12/29 21:41:07;;;;;;;;;;;2.90;99.90;;;1.95;77.28;94060.31;10502405;28;1966;-84
2020/12/29 21:46:11;;;;;;;;;;;2.90;99.90;;;2.04;76.60;94057.97;10507447;28;1965;-84
2020/12/29 21:51:14;;;;;;;;;;;3.00;99.90;;;2.07;75.79;94060.09;10519765;28;1919;-83
2020/12/29 21:56:16;;;;;;;;;;;3.10;99.90;;;2.17;75.33;94066.22;10492317;28;1776;-82
2020/12/29 22:01:18;;;;;;;;;;;3.10;99.90;;;2.22;75.50;94067.25;10501788;28;1970;-83
2020/12/29 22:06:20;;;;;;;;;;;3.20;99.90;;;2.21;75.14;94069.13;10507282;28;1950;-82
2020/12/29 22:11:24;;;;;;;;;;;3.40;99.90;;;2.23;75.38;94064.38;10504944;28;2182;-83
2020/12/29 22:16:28;;;;;;;;;;;4.50;99.90;;;2.29;75.25;94073.09;10492626;28;1698;-83
2020/12/29 22:21:45;;;;;;;;;;;3.20;99.90;;;2.29;74.77;94065.16;10503342;28;1965;-82
2020/12/29 22:26:47;;;;;;;;;;;4.30;99.90;;;2.19;74.88;94063.28;10512935;28;1918;-82
2020/12/29 22:31:49;;;;;;;;;;;3.30;99.90;;;2.02;75.59;94060.88;10518967;28;1923;-82
2020/12/29 22:36:51;;;;;;;;;;;3.20;99.90;;;1.87;76.41;94066.13;10525066;28;1710;-83
2020/12/29 22:41:52;;;;;;;;;;;3.10;99.90;;;1.73;76.85;94060.53;10530080;28;1822;-83
2020/12/29 22:46:55;;;;;;;;;;;2.90;99.90;;;1.49;78.20;94060.16;10506232;28;2021;-84
2020/12/29 22:51:56;;;;;;;;;;;2.80;99.90;;;1.37;78.27;94062.22;10503096;28;1339;-82
2020/12/29 22:56:58;;;;;;;;;;;4.40;99.90;;;1.21;79.23;94057.91;10509945;28;1984;-83
2020/12/29 23:02:00;;;;;;;;;;;2.40;99.90;;;1.22;80.04;94064.81;10518828;28;1701;-81
2020/12/29 23:07:06;;;;;;;;;;;2.30;99.90;;;1.26;79.90;94056.09;10492583;28;1897;-83
2020/12/29 23:12:09;;;;;;;;;;;3.10;99.90;;;1.39;78.81;94064.63;10537903;28;1947;-84
2020/12/29 23:17:11;;;;;;;;;;;2.40;99.90;;;1.36;78.80;94058.00;10517304;28;1891;-83
2020/12/29 23:22:14;;;;;;;;;;;2.40;99.90;;;1.30;78.96;94062.47;10545689;28;2306;-86
2020/12/29 23:27:16;;;;;;;;;;;2.40;99.90;;;1.30;78.51;94064.31;10522537;28;2023;-85
2020/12/29 23:32:18;;;;;;;;;;;2.40;99.90;;;1.24;78.95;94057.41;10490444;28;1920;-84
2020/12/29 23:37:19;;;;;;;;;;;2.30;99.90;;;1.18;79.01;94047.84;10522688;28;1918;-84
2020/12/29 23:42:21;;;;;;;;;;;2.30;99.90;;;1.08;79.62;94049.41;10500160;28;1762;-83
2020/12/29 23:47:23;;;;;;;;;;;2.20;99.90;;;1.08;79.40;94048.56;10496741;28;1995;-82
2020/12/29 23:52:25;;;;;;;;;;;2.20;99.90;;;0.94;80.00;94048.22;10514791;28;1931;-84
2020/12/29 23:57:26;;;;;;;;;;;2.50;99.90;;;0.82;80.50;94050.28;10525590;28;1938;-82
